createdAt,value
2019-01-11T00:02:25.000Z,89.98
2019-01-11T00:04:54.608Z,90.02
2019-01-11T00:07:24.508Z,90.06
2019-01-11T00:09:54.064Z,90.11
2019-01-11T00:12:23.665Z,90.38
2019-01-11T00:14:53.452Z,90.38
2019-01-11T00:17:23.187Z,90.14
2019-01-11T00:19:52.795Z,90.24
2019-01-11T00:22:22.604Z,90.73
2019-01-11T00:24:52.316Z,90.69
2019-01-11T00:27:21.941Z,90.58
2019-01-11T00:29:51.635Z,90.71
2019-01-11T00:32:22.557Z,90.71
2019-01-11T00:34:52.410Z,90.42
2019-01-11T00:37:21.996Z,90.55
2019-01-11T00:39:51.490Z,90.54
2019-01-11T00:42:21.277Z,90.46
2019-01-11T00:44:51.020Z,90.39
2019-01-11T00:47:21.650Z,90.46
2019-01-11T00:49:51.374Z,90.55
2019-01-11T00:52:21.035Z,90.54
2019-01-11T00:54:50.720Z,90.54
2019-01-11T00:57:20.475Z,90.54
2019-01-11T00:59:50.008Z,90.58
2019-01-11T01:02:19.533Z,90.60
2019-01-11T01:04:49.316Z,90.73
2019-01-11T01:07:19.180Z,90.73
2019-01-11T01:09:48.788Z,90.64
2019-01-11T01:12:18.583Z,90.64
2019-01-11T01:14:48.302Z,90.26
2019-01-11T01:17:18.452Z,90.26
2019-01-11T01:19:48.666Z,90.35
2019-01-11T01:22:18.486Z,90.30
2019-01-11T01:24:48.010Z,90.27
2019-01-11T01:27:17.800Z,90.19
2019-01-11T01:29:47.297Z,89.96
2019-01-11T01:32:17.012Z,89.90
2019-01-11T01:34:46.863Z,89.90
2019-01-11T01:37:16.389Z,89.99
2019-01-11T01:39:45.964Z,89.91
2019-01-11T01:42:15.702Z,89.87
2019-01-11T01:44:45.178Z,89.91
2019-01-11T01:47:14.719Z,89.91
2019-01-11T01:49:44.613Z,89.83
2019-01-11T01:52:14.175Z,89.77
2019-01-11T01:54:45.016Z,89.77
2019-01-11T01:57:14.690Z,89.94
2019-01-11T01:59:44.238Z,89.93
2019-01-11T02:02:13.997Z,89.96
2019-01-11T02:04:43.496Z,89.93
2019-01-11T02:07:13.149Z,89.90
2019-01-11T02:09:43.102Z,89.70
2019-01-11T02:12:12.657Z,89.63
2019-01-11T02:14:42.656Z,89.63
2019-01-11T02:17:12.956Z,89.82
2019-01-11T02:19:42.645Z,89.83
2019-01-11T02:22:12.435Z,89.82
2019-01-11T02:24:42.148Z,89.80
2019-01-11T02:27:11.829Z,89.70
2019-01-11T02:29:41.319Z,89.54
2019-01-11T02:32:11.006Z,89.54
2019-01-11T02:34:40.533Z,89.69
2019-01-11T02:37:10.400Z,89.64
2019-01-11T02:39:40.280Z,89.68
2019-01-11T02:42:10.219Z,89.70
2019-01-11T02:44:40.000Z,89.68
2019-01-11T02:47:10.135Z,89.62
2019-01-11T02:49:40.491Z,89.59
2019-01-11T02:52:10.308Z,89.56
2019-01-11T02:54:40.882Z,89.50
2019-01-11T02:57:10.567Z,89.45
2019-01-11T02:59:40.216Z,89.47
2019-01-11T03:02:10.504Z,89.51
2019-01-11T03:04:40.291Z,89.46
2019-01-11T03:07:10.143Z,89.42
2019-01-11T03:09:39.979Z,89.47
2019-01-11T03:12:09.810Z,89.41
2019-01-11T03:14:39.426Z,89.57
2019-01-11T03:17:09.204Z,89.57
2019-01-11T03:19:39.038Z,89.68
2019-01-11T03:22:09.000Z,89.79
2019-01-11T03:24:38.943Z,89.83
2019-01-11T03:27:08.940Z,89.84
2019-01-11T03:29:38.674Z,89.79
2019-01-11T03:32:08.418Z,89.87
2019-01-11T03:34:46.049Z,89.87
2019-01-11T03:37:15.708Z,89.85
2019-01-11T03:39:45.218Z,89.63
2019-01-11T03:42:14.891Z,89.63
2019-01-11T03:44:44.701Z,89.74
2019-01-11T03:47:14.352Z,89.74
2019-01-11T03:49:43.974Z,89.79
2019-01-11T03:52:13.813Z,89.75
2019-01-11T03:54:43.472Z,89.75
2019-01-11T03:57:22.250Z,89.82
2019-01-11T03:59:51.946Z,89.82
2019-01-11T04:02:21.492Z,89.82
2019-01-11T04:04:51.354Z,89.47
2019-01-11T04:07:20.932Z,89.47
2019-01-11T04:09:50.598Z,89.72
2019-01-11T04:12:20.418Z,89.72
2019-01-11T04:14:49.970Z,89.92
2019-01-11T04:17:19.551Z,89.92
2019-01-11T04:19:49.206Z,89.78
2019-01-11T04:22:27.100Z,89.93
2019-01-11T04:25:21.897Z,89.93
2019-01-11T04:27:52.216Z,89.72
2019-01-11T04:30:23.066Z,89.71
2019-01-11T04:32:52.620Z,89.57
2019-01-11T04:35:22.207Z,89.52
2019-01-11T04:37:51.939Z,89.50
2019-01-11T04:40:21.521Z,89.50
2019-01-11T04:42:51.091Z,89.47
2019-01-11T04:45:20.839Z,89.49
2019-01-11T04:47:50.357Z,89.44
2019-01-11T04:50:20.391Z,89.35
2019-01-11T04:52:50.166Z,89.11
2019-01-11T04:55:19.761Z,89.28
2019-01-11T04:57:49.246Z,89.28
2019-01-11T05:00:23.400Z,89.16
2019-01-11T05:02:53.026Z,89.06
2019-01-11T05:05:22.711Z,89.06
2019-01-11T05:07:52.990Z,89.08
2019-01-11T05:10:22.757Z,89.10
2019-01-11T05:12:52.390Z,89.09
2019-01-11T05:15:22.253Z,89.06
2019-01-11T05:17:51.935Z,88.98
2019-01-11T05:20:21.520Z,88.95
2019-01-11T05:22:51.280Z,88.92
2019-01-11T05:25:20.853Z,88.95
2019-01-11T05:27:50.529Z,88.91
2019-01-11T05:30:21.267Z,88.98
2019-01-11T05:32:50.912Z,88.88
2019-01-11T05:35:20.486Z,88.85
2019-01-11T05:37:50.421Z,88.84
2019-01-11T05:40:20.618Z,88.80
2019-01-11T05:42:50.341Z,88.80
2019-01-11T05:45:20.125Z,89.04
2019-01-11T05:47:49.755Z,89.00
2019-01-11T05:50:24.360Z,89.14
2019-01-11T05:52:51.896Z,88.69
2019-01-11T05:55:49.543Z,88.69
2019-01-11T05:58:44.511Z,88.85
2019-01-11T06:01:15.103Z,88.96
2019-01-11T06:03:44.941Z,88.82
2019-01-11T06:06:14.654Z,88.73
2019-01-11T06:08:44.271Z,88.71
2019-01-11T06:11:14.040Z,88.71
2019-01-11T06:13:43.646Z,88.49
2019-01-11T06:16:13.255Z,88.44
2019-01-11T06:18:43.104Z,88.23
2019-01-11T06:21:12.728Z,88.12
2019-01-11T06:23:42.329Z,87.65
2019-01-11T06:26:12.053Z,87.65
2019-01-11T06:28:41.667Z,87.38
2019-01-11T06:31:11.325Z,87.28
2019-01-11T06:33:41.097Z,86.98
2019-01-11T06:36:10.655Z,86.98
2019-01-11T06:38:40.368Z,86.90
2019-01-11T06:41:10.602Z,86.53
2019-01-11T06:43:41.030Z,86.82
2019-01-11T06:46:10.606Z,86.89
2019-01-11T06:48:43.370Z,86.42
2019-01-11T06:51:13.364Z,86.93
2019-01-11T06:53:42.991Z,86.93
2019-01-11T06:56:13.011Z,86.67
2019-01-11T06:58:42.725Z,86.63
2019-01-11T07:01:12.217Z,86.52
2019-01-11T07:03:42.160Z,86.36
2019-01-11T07:06:11.909Z,86.39
2019-01-11T07:08:41.557Z,86.39
2019-01-11T07:11:11.357Z,86.20
2019-01-11T07:13:41.095Z,85.75
2019-01-11T07:16:10.644Z,85.75
2019-01-11T07:18:40.594Z,85.83
2019-01-11T07:21:10.323Z,85.81
2019-01-11T07:23:40.170Z,85.73
2019-01-11T07:26:10.614Z,85.61
2019-01-11T07:28:40.475Z,85.61
2019-01-11T07:31:18.711Z,85.04
2019-01-11T07:33:48.415Z,84.63
2019-01-11T07:36:37.397Z,84.58
2019-01-11T07:39:21.741Z,84.66
2019-01-11T07:41:51.549Z,84.77
2019-01-11T07:44:21.111Z,84.77
2019-01-11T07:46:50.621Z,84.64
2019-01-11T07:49:23.218Z,84.48
2019-01-11T07:51:51.716Z,84.48
2019-01-11T07:54:21.616Z,84.91
2019-01-11T07:56:53.034Z,84.52
2019-01-11T07:59:23.322Z,84.02
2019-01-11T08:01:52.997Z,84.02
2019-01-11T08:04:22.845Z,83.95
2019-01-11T08:06:52.980Z,83.95
2019-01-11T08:09:22.828Z,83.88
2019-01-11T08:11:52.679Z,83.78
2019-01-11T08:14:22.431Z,83.64
2019-01-11T08:16:52.008Z,83.27
2019-01-11T08:19:21.843Z,83.40
2019-01-11T08:21:51.626Z,83.30
2019-01-11T08:24:21.195Z,82.86
2019-01-11T08:26:51.159Z,82.86
2019-01-11T08:29:20.989Z,82.78
2019-01-11T08:31:50.669Z,82.88
2019-01-11T08:34:20.295Z,82.51
2019-01-11T08:36:50.069Z,82.51
2019-01-11T08:39:19.644Z,82.53
2019-01-11T08:41:49.108Z,81.58
2019-01-11T08:44:18.914Z,81.58
2019-01-11T08:46:48.549Z,81.90
2019-01-11T08:49:18.055Z,81.93
2019-01-11T08:51:47.931Z,81.92
2019-01-11T08:54:17.648Z,82.09
2019-01-11T08:56:47.370Z,82.09
2019-01-11T08:59:17.129Z,82.02
2019-01-11T09:01:46.711Z,81.13
2019-01-11T09:04:16.333Z,81.13
2019-01-11T09:06:46.126Z,81.05
2019-01-11T09:09:15.687Z,81.08
2019-01-11T09:11:45.359Z,80.41
2019-01-11T09:14:47.237Z,80.31
2019-01-11T09:17:18.947Z,80.31
2019-01-11T09:19:48.837Z,80.11
2019-01-11T09:22:18.467Z,79.80
2019-01-11T09:24:48.257Z,79.56
2019-01-11T09:27:18.084Z,78.81
2019-01-11T09:29:47.797Z,78.94
2019-01-11T09:32:17.407Z,78.94
2019-01-11T09:34:47.298Z,78.92
2019-01-11T09:37:16.826Z,78.54
2019-01-11T09:39:46.521Z,78.58
2019-01-11T09:42:16.200Z,78.78
2019-01-11T09:44:45.854Z,78.70
2019-01-11T09:47:15.362Z,78.21
2019-01-11T09:49:45.049Z,78.21
2019-01-11T09:52:14.658Z,78.25
2019-01-11T09:54:44.235Z,78.29
2019-01-11T09:57:13.920Z,78.35
2019-01-11T09:59:43.504Z,77.91
2019-01-11T10:02:32.196Z,77.72
2019-01-11T10:05:02.086Z,77.42
2019-01-11T10:07:31.788Z,77.55
2019-01-11T10:10:01.578Z,77.66
2019-01-11T10:12:31.167Z,77.61
2019-01-11T10:15:00.734Z,77.80
2019-01-11T10:17:30.559Z,77.80
2019-01-11T10:20:00.301Z,77.32
2019-01-11T10:22:29.935Z,77.32
2019-01-11T10:24:59.711Z,77.36
2019-01-11T10:27:29.394Z,77.02
2019-01-11T10:29:59.234Z,76.93
2019-01-11T10:32:28.972Z,76.61
2019-01-11T10:34:58.538Z,76.34
2019-01-11T10:37:28.338Z,76.03
2019-01-11T10:39:58.210Z,75.71
2019-01-11T10:42:27.790Z,75.76
2019-01-11T10:44:57.517Z,75.62
2019-01-11T10:47:27.397Z,75.35
2019-01-11T10:49:57.063Z,75.34
2019-01-11T10:52:26.707Z,75.13
2019-01-11T10:54:57.750Z,75.20
2019-01-11T10:57:27.396Z,75.25
2019-01-11T10:59:57.047Z,75.20
2019-01-11T11:02:27.052Z,75.08
2019-01-11T11:04:56.686Z,75.15
2019-01-11T11:07:26.341Z,74.73
2019-01-11T11:09:56.108Z,74.73
2019-01-11T11:12:25.763Z,74.83
2019-01-11T11:14:55.322Z,74.74
2019-01-11T11:17:25.117Z,74.63
2019-01-11T11:19:55.100Z,74.46
2019-01-11T11:22:24.839Z,73.79
2019-01-11T11:24:54.669Z,73.71
2019-01-11T11:27:24.263Z,73.33
2019-01-11T11:29:53.907Z,73.05
2019-01-11T11:32:32.983Z,72.38
2019-01-11T11:35:02.606Z,71.68
2019-01-11T11:37:32.210Z,70.25
2019-01-11T11:40:02.206Z,70.25
2019-01-11T11:42:31.918Z,69.68
2019-01-11T11:45:01.588Z,68.99
2019-01-11T11:47:31.464Z,68.51
2019-01-11T11:50:01.163Z,68.62
2019-01-11T11:52:30.716Z,69.21
2019-01-11T11:55:00.490Z,69.49
2019-01-11T11:57:30.176Z,69.47
2019-01-11T12:00:00.021Z,69.60
2019-01-11T12:02:29.764Z,69.80
2019-01-11T12:04:59.492Z,70.09
2019-01-11T12:07:29.247Z,70.27
2019-01-11T12:09:58.979Z,70.42
2019-01-11T12:12:28.600Z,70.29
2019-01-11T12:14:58.185Z,70.53
2019-01-11T12:17:28.080Z,70.41
2019-01-11T12:19:57.650Z,70.46
2019-01-11T12:22:27.380Z,70.48
2019-01-11T12:24:57.158Z,70.49
2019-01-11T12:27:26.815Z,70.33
2019-01-11T12:29:56.472Z,70.35
2019-01-11T12:32:26.200Z,70.16
2019-01-11T12:34:55.801Z,70.13
2019-01-11T12:37:25.398Z,69.97
2019-01-11T12:39:55.429Z,69.91
2019-01-11T12:42:25.043Z,69.67
2019-01-11T12:44:54.799Z,69.39
2019-01-11T12:47:24.616Z,69.09
2019-01-11T12:49:54.177Z,68.99
2019-01-11T12:52:23.838Z,68.87
2019-01-11T12:54:53.635Z,68.65
2019-01-11T12:57:23.259Z,68.48
2019-01-11T12:59:52.809Z,68.20
2019-01-11T13:02:22.492Z,68.20
2019-01-11T13:04:52.225Z,68.10
2019-01-11T13:07:21.753Z,68.00
2019-01-11T13:09:51.459Z,68.16
2019-01-11T13:12:21.221Z,68.16
2019-01-11T13:14:50.854Z,68.19
2019-01-11T13:17:20.800Z,68.26
2019-01-11T13:19:50.442Z,68.43
2019-01-11T13:22:20.246Z,68.57
2019-01-11T13:24:50.180Z,68.66
2019-01-11T13:27:19.873Z,68.78
2019-01-11T13:29:49.455Z,68.79
2019-01-11T13:32:19.253Z,68.79
2019-01-11T13:34:48.920Z,68.78
2019-01-11T13:37:18.610Z,67.95
2019-01-11T13:39:48.527Z,67.79
2019-01-11T13:42:18.537Z,67.57
2019-01-11T13:44:48.202Z,66.32
2019-01-11T13:47:18.138Z,65.51
2019-01-11T13:49:47.735Z,65.51
2019-01-11T13:52:17.395Z,65.42
2019-01-11T13:54:49.949Z,64.64
2019-01-11T13:57:19.579Z,64.47
2019-01-11T13:59:49.119Z,64.31
2019-01-11T14:02:18.989Z,63.41
2019-01-11T14:04:48.628Z,63.09
2019-01-11T14:07:18.211Z,63.37
2019-01-11T14:09:48.090Z,62.87
2019-01-11T14:12:17.753Z,62.87
2019-01-11T14:14:47.498Z,63.13
2019-01-11T14:17:17.254Z,61.98
2019-01-11T14:19:47.282Z,62.19
2019-01-11T14:22:16.920Z,61.86
2019-01-11T14:24:46.726Z,61.86
2019-01-11T14:27:16.298Z,61.88
2019-01-11T14:29:46.027Z,61.83
2019-01-11T14:32:16.138Z,61.78
2019-01-11T14:34:45.766Z,60.71
2019-01-11T14:37:15.354Z,60.71
2019-01-11T14:39:45.025Z,61.01
2019-01-11T14:42:14.661Z,60.68
2019-01-11T14:44:44.424Z,60.68
2019-01-11T14:47:14.141Z,60.90
2019-01-11T14:49:43.677Z,60.68
2019-01-11T14:52:20.143Z,60.63
2019-01-11T14:54:45.063Z,61.12
2019-01-11T14:57:14.975Z,60.88
2019-01-11T14:59:44.465Z,60.88
2019-01-11T15:02:14.269Z,60.74
2019-01-11T15:04:44.049Z,60.96
2019-01-11T15:07:13.715Z,61.12
2019-01-11T15:09:43.445Z,61.37
2019-01-11T15:12:13.153Z,61.44
2019-01-11T15:14:42.801Z,62.24
2019-01-11T15:17:12.700Z,62.24
2019-01-11T15:19:42.536Z,62.27
2019-01-11T15:22:12.136Z,62.39
2019-01-11T15:24:41.960Z,62.99
2019-01-11T15:27:11.507Z,62.99
2019-01-11T15:29:41.245Z,63.25
2019-01-11T15:32:10.982Z,63.50
2019-01-11T15:34:40.835Z,63.93
2019-01-11T15:37:10.487Z,65.00
2019-01-11T15:39:40.420Z,65.55
2019-01-11T15:42:10.082Z,65.53
2019-01-11T15:44:40.054Z,66.01
2019-01-11T15:47:10.293Z,66.01
2019-01-11T15:49:40.112Z,68.00
2019-01-11T15:52:09.886Z,68.00
2019-01-11T15:54:39.788Z,68.33
2019-01-11T15:57:09.529Z,69.57
2019-01-11T16:00:04.461Z,69.20
2019-01-11T16:02:34.197Z,69.20
2019-01-11T16:05:03.834Z,69.44
2019-01-11T16:07:33.995Z,69.09
2019-01-11T16:10:09.657Z,69.09
2019-01-11T16:12:59.187Z,69.32
2019-01-11T16:16:27.568Z,69.37
2019-01-11T16:18:58.571Z,69.12
2019-01-11T16:21:28.275Z,68.96
2019-01-11T16:23:58.005Z,68.84
2019-01-11T16:26:27.703Z,69.56
2019-01-11T16:28:57.390Z,71.36
2019-01-11T16:31:27.139Z,71.36
2019-01-11T16:33:56.843Z,71.54
2019-01-11T16:36:26.631Z,71.72
2019-01-11T16:38:56.273Z,71.93
2019-01-11T16:41:26.275Z,72.13
2019-01-11T16:43:55.985Z,72.02
2019-01-11T16:46:25.625Z,71.83
2019-01-11T16:48:55.399Z,71.78
2019-01-11T16:51:25.198Z,71.53
2019-01-11T16:53:54.819Z,71.42
2019-01-11T16:56:24.530Z,71.39
2019-01-11T16:58:54.155Z,71.26
2019-01-11T17:01:24.018Z,71.18
2019-01-11T17:03:54.701Z,71.19
2019-01-11T17:06:24.667Z,71.06
2019-01-11T17:08:54.236Z,71.21
2019-01-11T17:11:24.151Z,71.42
2019-01-11T17:13:53.841Z,71.80
2019-01-11T17:16:23.597Z,71.95
2019-01-11T17:18:53.624Z,72.41
2019-01-11T17:21:23.536Z,72.97
2019-01-11T17:23:53.149Z,73.44
2019-01-11T17:26:23.137Z,73.67
2019-01-11T17:28:52.745Z,73.84
2019-01-11T17:31:22.402Z,73.77
2019-01-11T17:33:52.081Z,73.77
2019-01-11T17:36:21.648Z,73.66
2019-01-11T17:38:51.284Z,73.77
2019-01-11T17:41:21.050Z,73.89
2019-01-11T17:43:50.676Z,73.63
2019-01-11T17:46:20.223Z,73.29
2019-01-11T17:48:50.013Z,73.07
2019-01-11T17:51:19.738Z,73.05
2019-01-11T17:53:49.293Z,73.01
2019-01-11T17:56:18.966Z,73.98
2019-01-11T17:58:48.593Z,74.62
2019-01-11T18:01:18.268Z,75.12
2019-01-11T18:03:48.044Z,75.12
2019-01-11T18:06:17.574Z,75.14
2019-01-11T18:08:47.151Z,75.16
2019-01-11T18:11:17.074Z,75.26
2019-01-11T18:13:46.730Z,75.18
2019-01-11T18:16:16.464Z,74.71
2019-01-11T18:18:46.135Z,74.43
2019-01-11T18:21:15.780Z,74.12
2019-01-11T18:23:45.524Z,73.96
2019-01-11T18:26:15.650Z,74.26
2019-01-11T18:28:45.200Z,74.53
2019-01-11T18:31:15.656Z,74.40
2019-01-11T18:33:45.525Z,74.17
2019-01-11T18:36:15.207Z,74.15
2019-01-11T18:38:44.767Z,74.22
2019-01-11T18:41:14.560Z,74.18
2019-01-11T18:43:44.384Z,74.00
2019-01-11T18:46:14.092Z,73.95
2019-01-11T18:48:44.017Z,74.96
2019-01-11T18:51:13.602Z,75.65
2019-01-11T18:53:43.101Z,76.01
2019-01-11T18:56:13.024Z,76.22
2019-01-11T18:58:42.681Z,76.33
2019-01-11T19:01:12.353Z,76.35
2019-01-11T19:03:42.111Z,76.41
2019-01-11T19:06:13.827Z,76.28
2019-01-11T19:08:43.803Z,76.16
2019-01-11T19:11:13.586Z,76.12
2019-01-11T19:13:43.164Z,75.99
2019-01-11T19:16:12.993Z,76.00
2019-01-11T19:18:42.812Z,76.09
2019-01-11T19:21:14.080Z,76.20
2019-01-11T19:23:43.733Z,76.36
2019-01-11T19:26:13.438Z,76.51
2019-01-11T19:28:43.415Z,76.71
2019-01-11T19:31:13.114Z,76.91
2019-01-11T19:33:43.147Z,77.06
2019-01-11T19:36:12.998Z,77.21
2019-01-11T19:38:42.734Z,77.28
2019-01-11T19:41:12.388Z,76.84
2019-01-11T19:43:42.681Z,76.46
2019-01-11T19:46:12.392Z,76.17
2019-01-11T19:48:42.483Z,75.92
2019-01-11T19:51:12.388Z,75.72
2019-01-11T19:53:42.013Z,75.56
2019-01-11T19:56:11.665Z,75.39
2019-01-11T19:58:41.995Z,75.50
2019-01-11T20:01:12.213Z,75.73
2019-01-11T20:03:42.203Z,75.98
2019-01-11T20:06:12.117Z,76.26
2019-01-11T20:08:42.122Z,76.50
2019-01-11T20:11:11.999Z,76.38
2019-01-11T20:13:41.925Z,76.24
2019-01-11T20:16:11.592Z,76.04
2019-01-11T20:18:41.431Z,75.83
2019-01-11T20:21:11.486Z,75.92
2019-01-11T20:23:42.396Z,76.21
2019-01-11T20:26:12.288Z,76.31
2019-01-11T20:28:42.140Z,76.44
2019-01-11T20:31:11.684Z,76.34
2019-01-11T20:33:41.707Z,76.25
2019-01-11T20:36:11.601Z,76.61
2019-01-11T20:38:41.403Z,76.98
2019-01-11T20:41:11.490Z,77.29
2019-01-11T20:43:41.215Z,77.46
2019-01-11T20:46:11.555Z,77.61
2019-01-11T20:48:41.919Z,77.87
2019-01-11T20:51:11.787Z,78.00
2019-01-11T20:53:42.044Z,77.68
2019-01-11T20:56:11.974Z,77.48
2019-01-11T20:58:41.589Z,77.27
2019-01-11T21:01:12.313Z,77.03
2019-01-11T21:03:42.554Z,76.98
2019-01-11T21:06:12.135Z,77.02
2019-01-11T21:08:41.875Z,77.18
2019-01-11T21:11:11.743Z,77.08
2019-01-11T21:13:41.609Z,76.95
2019-01-11T21:16:12.023Z,76.87
2019-01-11T21:18:41.769Z,77.16
2019-01-11T21:21:11.650Z,77.44
2019-01-11T21:23:48.415Z,77.92
2019-01-11T21:26:13.002Z,78.25
2019-01-11T21:28:42.871Z,78.46
2019-01-11T21:31:12.747Z,78.52
2019-01-11T21:33:42.317Z,78.37
2019-01-11T21:36:12.268Z,78.31
2019-01-11T21:38:42.124Z,78.36
2019-01-11T21:41:11.685Z,78.44
2019-01-11T21:43:41.723Z,78.44
2019-01-11T21:46:11.425Z,78.38
2019-01-11T21:48:41.423Z,78.24
2019-01-11T21:51:11.562Z,78.20
2019-01-11T21:53:41.367Z,78.27
2019-01-11T21:56:11.157Z,78.46
2019-01-11T21:58:41.270Z,78.41
2019-01-11T22:01:10.986Z,78.34
2019-01-11T22:03:40.624Z,77.86
2019-01-11T22:06:10.688Z,77.47
2019-01-11T22:08:41.854Z,77.16
2019-01-11T22:11:11.597Z,77.10
2019-01-11T22:13:41.462Z,77.08
2019-01-11T22:16:11.248Z,77.03
2019-01-11T22:18:41.250Z,77.03
2019-01-11T22:21:11.093Z,77.09
2019-01-11T22:23:40.849Z,77.18
2019-01-11T22:26:10.566Z,77.18
2019-01-11T22:28:40.387Z,77.26
2019-01-11T22:31:10.238Z,77.32
2019-01-11T22:33:40.134Z,77.31
2019-01-11T22:36:09.900Z,77.35
2019-01-11T22:38:39.744Z,77.49
2019-01-11T22:41:09.587Z,77.42
2019-01-11T22:43:39.222Z,77.32
2019-01-11T22:46:08.958Z,77.39
2019-01-11T22:48:38.710Z,77.74
2019-01-11T22:51:08.456Z,77.95
2019-01-11T22:53:38.132Z,77.77
2019-01-11T22:56:08.081Z,77.84
2019-01-11T22:58:37.969Z,77.96
2019-01-11T23:01:54.582Z,77.93
2019-01-11T23:04:24.232Z,77.83
2019-01-11T23:07:20.636Z,78.04
2019-01-11T23:09:56.970Z,78.07
2019-01-11T23:13:02.135Z,78.00
2019-01-11T23:15:34.752Z,77.98
2019-01-11T23:18:24.663Z,78.03
2019-01-11T23:20:57.089Z,78.11
2019-01-11T23:23:26.806Z,78.21
2019-01-11T23:25:56.469Z,78.14
2019-01-11T23:28:26.135Z,78.07
2019-01-11T23:30:56.006Z,78.26
2019-01-11T23:33:25.577Z,78.50
2019-01-11T23:35:55.282Z,78.61
2019-01-11T23:38:25.129Z,78.68
2019-01-11T23:40:54.891Z,78.76
2019-01-11T23:43:24.499Z,78.65
2019-01-11T23:45:54.318Z,78.48
2019-01-11T23:48:23.856Z,78.25
2019-01-11T23:50:53.457Z,77.97
2019-01-11T23:53:23.319Z,77.85
2019-01-11T23:55:53.101Z,77.89
2019-01-11T23:58:22.763Z,77.99
